Time;durP1;ratioP1;P1;durP2;ratioP2;P2;SDS_P1;SDS_P2;PMS_P1;PMS_P2;Temp;Humidity;BMP_temperature;BMP_pressure;BME280_temperature;BME280_humidity;BME280_pressure;Samples;Min_cycle;Max_cycle;Signal;HPM_P1;HPM_P2
2021/09/05 00:01:07;;;;;;;24.08;15.00;;;;;;;;;;5015819;28;20401;-70
2021/09/05 00:03:33;;;;;;;28.50;16.20;;;;;;;;;;5015746;28;20180;-70
2021/09/05 00:06:00;;;;;;;21.85;15.65;;;;;;;;;;4998096;28;20100;-70
2021/09/05 00:08:26;;;;;;;25.90;15.35;;;;;;;;;;5016752;28;20060;-70
2021/09/05 00:10:52;;;;;;;24.90;14.57;;;;;;;;;;5012679;28;20033;-70
2021/09/05 00:13:18;;;;;;;30.13;18.30;;;;;;;;;;5019901;28;20188;-67
2021/09/05 00:15:44;;;;;;;25.52;16.65;;;;;;;;;;5012559;28;20049;-69
2021/09/05 00:18:10;;;;;;;26.70;16.85;;;;;;;;;;5012217;28;20595;-69
2021/09/05 00:20:36;;;;;;;26.73;15.45;;;;;;;;;;5016538;28;20403;-69
2021/09/05 00:23:03;;;;;;;24.25;15.57;;;;;;;;;;5014952;28;20045;-69
2021/09/05 00:25:33;;;;;;;26.05;15.95;;;;;;;;;;5016804;28;20053;-69
2021/09/05 00:27:59;;;;;;;30.17;16.42;;;;;;;;;;5016826;28;20076;-69
2021/09/05 00:30:26;;;;;;;27.55;17.50;;;;;;;;;;5021859;28;20052;-69
2021/09/05 00:32:52;;;;;;;28.23;17.92;;;;;;;;;;5015924;28;20049;-69
2021/09/05 00:35:18;;;;;;;29.40;16.90;;;;;;;;;;5017562;28;20076;-69
2021/09/05 00:37:44;;;;;;;25.52;15.88;;;;;;;;;;5016539;28;20073;-69
2021/09/05 00:40:10;;;;;;;25.55;16.40;;;;;;;;;;5002997;28;20041;-69
2021/09/05 00:42:37;;;;;;;32.15;17.83;;;;;;;;;;5011846;28;20041;-69
2021/09/05 00:45:03;;;;;;;30.05;17.35;;;;;;;;;;5022807;28;20044;-69
2021/09/05 00:47:29;;;;;;;27.60;17.10;;;;;;;;;;5018295;28;20065;-69
2021/09/05 00:49:55;;;;;;;27.45;16.75;;;;;;;;;;5017091;28;20116;-69
2021/09/05 00:52:22;;;;;;;26.95;17.00;;;;;;;;;;5014288;28;20033;-69
2021/09/05 00:54:48;;;;;;;28.05;17.95;;;;;;;;;;5024529;28;20053;-70
2021/09/05 00:57:15;;;;;;;35.38;21.33;;;;;;;;;;5014770;28;20528;-69
2021/09/05 00:59:42;;;;;;;29.50;19.80;;;;;;;;;;5015425;28;20094;-69
2021/09/05 01:02:09;;;;;;;33.72;19.17;;;;;;;;;;5018352;28;20041;-69
2021/09/05 01:04:35;;;;;;;39.20;22.75;;;;;;;;;;5013267;28;20029;-69
2021/09/05 01:07:01;;;;;;;34.85;21.83;;;;;;;;;;5017985;28;20046;-69
2021/09/05 01:09:28;;;;;;;57.05;40.40;;;;;;;;;;5012223;28;20129;-69
2021/09/05 01:11:55;;;;;;;66.80;45.90;;;;;;;;;;5018168;28;20477;-69
2021/09/05 01:14:21;;;;;;;101.45;71.65;;;;;;;;;;5029411;28;20524;-68
2021/09/05 01:16:48;;;;;;;58.58;37.58;;;;;;;;;;5021544;28;20037;-68
2021/09/05 01:19:15;;;;;;;41.13;26.10;;;;;;;;;;5010087;28;20104;-68
2021/09/05 01:21:42;;;;;;;34.90;21.95;;;;;;;;;;5019607;28;20437;-68
2021/09/05 01:24:08;;;;;;;43.97;26.42;;;;;;;;;;5007717;28;20399;-68
2021/09/05 01:26:35;;;;;;;39.63;23.08;;;;;;;;;;5018094;28;20505;-68
2021/09/05 01:29:02;;;;;;;43.33;23.05;;;;;;;;;;5010414;28;20048;-68
2021/09/05 01:31:40;;;;;;;42.08;23.40;;;;;;;;;;5020014;28;20579;-68
2021/09/05 01:34:07;;;;;;;45.95;24.23;;;;;;;;;;5012826;28;20061;-68
2021/09/05 01:36:34;;;;;;;50.97;25.25;;;;;;;;;;5022815;28;20273;-68
2021/09/05 01:39:00;;;;;;;35.35;23.60;;;;;;;;;;5007843;28;20042;-68
2021/09/05 01:41:26;;;;;;;36.75;21.42;;;;;;;;;;5017602;28;20037;-68
2021/09/05 01:44:02;;;;;;;40.38;23.10;;;;;;;;;;5021943;28;20394;-68
2021/09/05 01:46:28;;;;;;;32.85;21.08;;;;;;;;;;5022392;28;20445;-68
2021/09/05 01:48:54;;;;;;;42.17;23.80;;;;;;;;;;5006528;28;20046;-68
2021/09/05 01:51:20;;;;;;;49.83;25.48;;;;;;;;;;5016487;28;20045;-68
2021/09/05 01:53:46;;;;;;;54.70;28.60;;;;;;;;;;5028363;28;20398;-69
2021/09/05 01:56:12;;;;;;;53.78;27.05;;;;;;;;;;5015396;28;20046;-69
2021/09/05 01:58:38;;;;;;;40.45;23.95;;;;;;;;;;5018028;28;20080;-68
2021/09/05 02:01:04;;;;;;;45.70;26.63;;;;;;;;;;5016992;28;20033;-68
2021/09/05 02:03:30;;;;;;;51.45;26.63;;;;;;;;;;5022402;28;20064;-68
2021/09/05 02:05:56;;;;;;;57.70;27.55;;;;;;;;;;4996549;28;20508;-68
2021/09/05 02:08:23;;;;;;;57.20;27.67;;;;;;;;;;5018060;28;20038;-68
2021/09/05 02:10:49;;;;;;;54.78;28.52;;;;;;;;;;5010716;28;20088;-68
2021/09/05 02:13:15;;;;;;;50.88;27.30;;;;;;;;;;5018951;28;20481;-68
2021/09/05 02:15:41;;;;;;;58.33;28.10;;;;;;;;;;5012485;28;20049;-68
2021/09/05 02:18:07;;;;;;;54.35;27.05;;;;;;;;;;5022011;28;20573;-68
2021/09/05 02:20:33;;;;;;;66.38;28.42;;;;;;;;;;5016574;28;20041;-68
2021/09/05 02:22:59;;;;;;;57.95;27.40;;;;;;;;;;5019589;28;20042;-68
2021/09/05 02:25:26;;;;;;;64.32;30.08;;;;;;;;;;5022226;28;20429;-68
2021/09/05 02:27:52;;;;;;;44.28;24.58;;;;;;;;;;5012718;28;20041;-68
2021/09/05 02:30:18;;;;;;;58.88;29.27;;;;;;;;;;5020656;28;20046;-68
2021/09/05 02:32:44;;;;;;;61.25;29.30;;;;;;;;;;5018636;28;20052;-69
2021/09/05 02:35:11;;;;;;;63.75;30.27;;;;;;;;;;5020656;28;20527;-68
2021/09/05 02:37:38;;;;;;;47.67;25.75;;;;;;;;;;5016683;28;20045;-68
2021/09/05 02:40:05;;;;;;;50.42;27.83;;;;;;;;;;5019749;28;20397;-69
2021/09/05 02:42:33;;;;;;;55.30;27.85;;;;;;;;;;5019265;28;20041;-69
2021/09/05 02:45:00;;;;;;;52.67;26.88;;;;;;;;;;5026486;28;20049;-69
2021/09/05 02:47:26;;;;;;;51.38;27.70;;;;;;;;;;5004989;28;20092;-69
2021/09/05 02:49:52;;;;;;;61.17;27.45;;;;;;;;;;5021166;28;20095;-69
2021/09/05 02:52:18;;;;;;;55.78;27.52;;;;;;;;;;5014238;28;20053;-69
2021/09/05 02:54:44;;;;;;;55.83;28.83;;;;;;;;;;5018422;28;20053;-69
2021/09/05 02:57:11;;;;;;;54.85;28.10;;;;;;;;;;5015148;28;20224;-69
2021/09/05 02:59:37;;;;;;;55.28;28.75;;;;;;;;;;5020642;28;20555;-69
2021/09/05 03:02:03;;;;;;;60.53;28.25;;;;;;;;;;5021773;28;20088;-69
2021/09/05 03:04:29;;;;;;;51.17;27.65;;;;;;;;;;5016336;28;20042;-69
2021/09/05 03:06:55;;;;;;;51.88;27.27;;;;;;;;;;5022448;28;20041;-69
2021/09/05 03:09:22;;;;;;;63.55;28.88;;;;;;;;;;5010585;28;20049;-69
2021/09/05 03:11:48;;;;;;;53.28;26.40;;;;;;;;;;5021518;28;20080;-69
2021/09/05 03:14:14;;;;;;;52.38;26.67;;;;;;;;;;5012745;28;20160;-69
2021/09/05 03:16:40;;;;;;;40.35;23.40;;;;;;;;;;5017798;28;20030;-69
2021/09/05 03:19:06;;;;;;;51.20;27.83;;;;;;;;;;5011784;28;20052;-69
2021/09/05 03:21:33;;;;;;;47.30;27.52;;;;;;;;;;5021033;28;20041;-69
2021/09/05 03:23:59;;;;;;;52.03;27.67;;;;;;;;;;5013516;28;20575;-69
2021/09/05 03:26:25;;;;;;;42.38;25.65;;;;;;;;;;5021758;28;20043;-69
2021/09/05 03:28:51;;;;;;;43.90;25.35;;;;;;;;;;5016708;28;20199;-69
2021/09/05 03:31:17;;;;;;;45.55;25.73;;;;;;;;;;5024164;28;20081;-68
2021/09/05 03:33:43;;;;;;;50.40;26.42;;;;;;;;;;5015757;28;20513;-69
2021/09/05 03:36:09;;;;;;;46.35;26.30;;;;;;;;;;5019176;28;20386;-69
2021/09/05 03:38:35;;;;;;;46.22;27.15;;;;;;;;;;5017200;28;20407;-69
2021/09/05 03:41:01;;;;;;;41.42;24.08;;;;;;;;;;5019893;28;20037;-69
2021/09/05 03:43:27;;;;;;;38.63;25.13;;;;;;;;;;5018712;28;20405;-69
2021/09/05 03:45:54;;;;;;;40.17;24.27;;;;;;;;;;5010096;28;20034;-69
2021/09/05 03:48:20;;;;;;;38.85;24.80;;;;;;;;;;5018619;28;20037;-69
2021/09/05 03:50:46;;;;;;;41.85;25.85;;;;;;;;;;5013394;28;20088;-69
2021/09/05 03:53:12;;;;;;;43.85;26.33;;;;;;;;;;5017516;28;20072;-69
2021/09/05 03:55:38;;;;;;;34.25;23.40;;;;;;;;;;5011636;28;20049;-69
2021/09/05 03:58:05;;;;;;;35.92;24.65;;;;;;;;;;5017651;28;20045;-69
2021/09/05 04:00:31;;;;;;;33.90;22.65;;;;;;;;;;5011522;28;20041;-69
2021/09/05 04:02:57;;;;;;;36.72;22.98;;;;;;;;;;5020732;28;20041;-69
2021/09/05 04:05:24;;;;;;;35.83;22.48;;;;;;;;;;5011609;28;20053;-69
2021/09/05 04:08:11;;;;;;;42.05;23.92;;;;;;;;;;5022311;28;20532;-69
2021/09/05 04:10:37;;;;;;;34.63;22.60;;;;;;;;;;5016748;28;20202;-69
2021/09/05 04:13:04;;;;;;;34.70;23.38;;;;;;;;;;5017356;28;20045;-69
2021/09/05 04:15:30;;;;;;;30.52;22.08;;;;;;;;;;5011317;28;20045;-69
2021/09/05 04:17:56;;;;;;;38.67;25.40;;;;;;;;;;5017132;28;20052;-69
2021/09/05 04:20:22;;;;;;;42.47;24.20;;;;;;;;;;5011289;28;20044;-69
2021/09/05 04:22:48;;;;;;;36.47;23.27;;;;;;;;;;5007763;28;20069;-69
2021/09/05 04:25:15;;;;;;;37.50;24.77;;;;;;;;;;5014750;28;20038;-69
2021/09/05 04:27:41;;;;;;;34.33;23.15;;;;;;;;;;5011489;28;20108;-69
2021/09/05 04:30:08;;;;;;;39.00;24.58;;;;;;;;;;5016455;28;20073;-69
2021/09/05 04:32:35;;;;;;;37.75;24.40;;;;;;;;;;4995791;28;20049;-69
2021/09/05 04:35:01;;;;;;;40.38;25.75;;;;;;;;;;5019159;28;20054;-68
2021/09/05 04:37:27;;;;;;;35.15;22.23;;;;;;;;;;5007339;28;20074;-68
2021/09/05 04:39:54;;;;;;;35.47;25.33;;;;;;;;;;5017945;28;20042;-68
2021/09/05 04:42:20;;;;;;;31.77;23.67;;;;;;;;;;5013894;28;20123;-69
2021/09/05 04:44:46;;;;;;;32.65;23.42;;;;;;;;;;5017983;28;20119;-69
2021/09/05 04:47:13;;;;;;;39.63;25.02;;;;;;;;;;5008062;28;20502;-69
2021/09/05 04:49:39;;;;;;;40.30;24.40;;;;;;;;;;5020350;28;21006;-68
2021/09/05 04:52:08;;;;;;;34.38;23.95;;;;;;;;;;5018918;28;20490;-68
2021/09/05 04:54:34;;;;;;;31.63;24.17;;;;;;;;;;5020177;28;20053;-68
2021/09/05 04:57:00;;;;;;;36.60;24.48;;;;;;;;;;4995709;28;20128;-69
2021/09/05 04:59:26;;;;;;;39.22;25.63;;;;;;;;;;5015741;28;20485;-68
2021/09/05 05:01:52;;;;;;;34.42;23.52;;;;;;;;;;5016198;28;20033;-68
2021/09/05 05:04:19;;;;;;;37.67;24.92;;;;;;;;;;5019601;28;20384;-68
2021/09/05 05:06:45;;;;;;;43.88;26.30;;;;;;;;;;5017296;28;20042;-68
2021/09/05 05:09:12;;;;;;;33.47;23.77;;;;;;;;;;5012889;28;20057;-68
2021/09/05 05:11:39;;;;;;;37.47;25.33;;;;;;;;;;5032493;28;20048;-68
2021/09/05 05:14:05;;;;;;;39.08;25.23;;;;;;;;;;5012902;28;20045;-68
2021/09/05 05:16:31;;;;;;;33.17;24.85;;;;;;;;;;5019583;28;20055;-68
2021/09/05 05:18:57;;;;;;;37.25;24.70;;;;;;;;;;5002795;28;20386;-68
2021/09/05 05:21:27;;;;;;;41.83;27.42;;;;;;;;;;5004175;28;20033;-68
2021/09/05 05:23:57;;;;;;;36.85;26.50;;;;;;;;;;5011179;28;20057;-68
2021/09/05 05:26:23;;;;;;;36.03;24.77;;;;;;;;;;4995510;28;20044;-68
2021/09/05 05:28:49;;;;;;;37.60;25.77;;;;;;;;;;5012719;28;20091;-68
2021/09/05 05:31:15;;;;;;;39.83;27.15;;;;;;;;;;5006219;28;20498;-68
2021/09/05 05:33:41;;;;;;;38.58;27.08;;;;;;;;;;5011581;28;20199;-69
2021/09/05 05:36:07;;;;;;;41.42;29.70;;;;;;;;;;5017149;28;20041;-69
2021/09/05 05:38:33;;;;;;;37.85;26.23;;;;;;;;;;5014362;28;20095;-69
2021/09/05 05:40:59;;;;;;;40.92;28.23;;;;;;;;;;5016193;28;20125;-69
2021/09/05 05:43:25;;;;;;;41.33;26.75;;;;;;;;;;5011595;28;20103;-69
2021/09/05 05:45:52;;;;;;;40.13;25.98;;;;;;;;;;5014754;28;20098;-69
2021/09/05 05:48:18;;;;;;;38.50;26.30;;;;;;;;;;5018188;28;20057;-68
2021/09/05 05:50:47;;;;;;;40.42;27.08;;;;;;;;;;5013005;28;20091;-68
2021/09/05 05:53:13;;;;;;;39.35;26.52;;;;;;;;;;5014053;28;20512;-68
2021/09/05 05:55:39;;;;;;;39.25;26.58;;;;;;;;;;5018114;28;20057;-68
2021/09/05 05:58:05;;;;;;;41.45;28.02;;;;;;;;;;5021430;28;20498;-68
2021/09/05 06:00:31;;;;;;;38.42;28.30;;;;;;;;;;5014015;28;20038;-68
2021/09/05 06:02:57;;;;;;;39.47;27.70;;;;;;;;;;5015166;28;20040;-68
2021/09/05 06:05:24;;;;;;;41.42;27.00;;;;;;;;;;5008383;28;20065;-68
2021/09/05 06:07:50;;;;;;;35.38;27.30;;;;;;;;;;5014858;28;20033;-68
2021/09/05 06:10:16;;;;;;;41.35;27.40;;;;;;;;;;5009769;28;20073;-67
2021/09/05 06:12:42;;;;;;;37.30;27.92;;;;;;;;;;5024485;28;20052;-67
2021/09/05 06:15:08;;;;;;;42.17;28.05;;;;;;;;;;4997756;28;20096;-67
2021/09/05 06:17:35;;;;;;;41.25;28.73;;;;;;;;;;5018131;28;20061;-68
2021/09/05 06:20:01;;;;;;;40.03;29.33;;;;;;;;;;5018982;28;20119;-69
2021/09/05 06:22:27;;;;;;;44.15;29.02;;;;;;;;;;5017487;28;20084;-69
2021/09/05 06:24:53;;;;;;;37.38;28.17;;;;;;;;;;5005399;28;20124;-68
2021/09/05 06:27:19;;;;;;;41.80;28.35;;;;;;;;;;5020114;28;20124;-68
2021/09/05 06:29:45;;;;;;;38.75;28.08;;;;;;;;;;5022994;28;20494;-69
2021/09/05 06:32:11;;;;;;;35.58;25.80;;;;;;;;;;5018190;28;20076;-69
2021/09/05 06:34:37;;;;;;;35.80;27.38;;;;;;;;;;5028275;28;23207;-69
2021/09/05 06:37:03;;;;;;;34.25;26.63;;;;;;;;;;5018329;28;20042;-69
2021/09/05 06:39:29;;;;;;;39.60;28.20;;;;;;;;;;5022627;28;20453;-69
2021/09/05 06:41:55;;;;;;;39.60;28.00;;;;;;;;;;5020665;28;20553;-69
2021/09/05 06:44:22;;;;;;;37.47;28.50;;;;;;;;;;5023305;28;20037;-69
2021/09/05 06:46:48;;;;;;;35.30;28.40;;;;;;;;;;5014932;28;20056;-68
2021/09/05 06:49:14;;;;;;;39.08;27.83;;;;;;;;;;5025485;28;20372;-69
2021/09/05 06:51:40;;;;;;;38.47;25.88;;;;;;;;;;5015503;28;20080;-69
2021/09/05 06:54:06;;;;;;;34.15;27.02;;;;;;;;;;5020937;28;20140;-69
2021/09/05 06:56:32;;;;;;;35.78;26.90;;;;;;;;;;5017732;28;20134;-69
2021/09/05 06:58:58;;;;;;;38.05;26.52;;;;;;;;;;5024444;28;20057;-69
2021/09/05 07:01:24;;;;;;;33.45;26.35;;;;;;;;;;5018043;28;20442;-69
2021/09/05 07:03:50;;;;;;;38.17;27.70;;;;;;;;;;5023953;28;20049;-69
2021/09/05 07:06:16;;;;;;;37.90;27.65;;;;;;;;;;5021754;28;20124;-69
2021/09/05 07:08:43;;;;;;;36.83;26.55;;;;;;;;;;5016447;28;20053;-70
2021/09/05 07:11:09;;;;;;;34.65;25.75;;;;;;;;;;5025516;28;20054;-70
2021/09/05 07:13:35;;;;;;;36.47;26.20;;;;;;;;;;5020493;28;20128;-70
2021/09/05 07:16:01;;;;;;;29.92;26.10;;;;;;;;;;5005895;28;20065;-70
2021/09/05 07:18:27;;;;;;;33.83;25.60;;;;;;;;;;5017022;28;20033;-70
2021/09/05 07:20:53;;;;;;;35.45;26.67;;;;;;;;;;5024831;28;20048;-70
2021/09/05 07:23:20;;;;;;;33.05;26.50;;;;;;;;;;5033802;28;20056;-70
2021/09/05 07:25:46;;;;;;;31.25;25.33;;;;;;;;;;5022015;28;20042;-70
2021/09/05 07:28:12;;;;;;;31.35;25.80;;;;;;;;;;5014835;28;20528;-70
2021/09/05 07:30:38;;;;;;;32.42;25.23;;;;;;;;;;5005517;28;20042;-70
2021/09/05 07:33:04;;;;;;;30.25;23.77;;;;;;;;;;5015493;28;20140;-70
2021/09/05 07:35:30;;;;;;;31.42;24.83;;;;;;;;;;5022604;28;20045;-71
2021/09/05 07:37:56;;;;;;;27.83;23.25;;;;;;;;;;5014227;28;20053;-70
2021/09/05 07:40:22;;;;;;;24.75;21.95;;;;;;;;;;5002486;28;20055;-70
2021/09/05 07:42:48;;;;;;;25.38;21.55;;;;;;;;;;5021237;28;20061;-70
2021/09/05 07:45:14;;;;;;;23.38;20.88;;;;;;;;;;5016827;28;20037;-70
2021/09/05 07:47:40;;;;;;;23.77;20.92;;;;;;;;;;5021848;28;20497;-70
2021/09/05 07:50:10;;;;;;;22.48;19.80;;;;;;;;;;5017376;28;20374;-71
2021/09/05 07:52:36;;;;;;;22.13;19.70;;;;;;;;;;5019133;28;20056;-71
2021/09/05 07:55:03;;;;;;;22.85;19.40;;;;;;;;;;5001793;28;20068;-71
2021/09/05 07:57:29;;;;;;;21.25;18.58;;;;;;;;;;5017824;28;20081;-72
2021/09/05 07:59:55;;;;;;;19.70;17.60;;;;;;;;;;5019972;28;20122;-66
2021/09/05 08:02:21;;;;;;;21.98;17.38;;;;;;;;;;5021160;28;20483;-71
2021/09/05 08:04:47;;;;;;;19.13;16.83;;;;;;;;;;5014701;28;20068;-69
2021/09/05 08:07:13;;;;;;;18.95;16.90;;;;;;;;;;5020499;28;20507;-69
2021/09/05 08:09:39;;;;;;;22.65;18.35;;;;;;;;;;5015767;28;20675;-69
2021/09/05 08:12:05;;;;;;;18.40;16.25;;;;;;;;;;5008683;28;20061;-70
2021/09/05 08:14:33;;;;;;;16.63;14.90;;;;;;;;;;5005968;28;20054;-70
2021/09/05 08:16:59;;;;;;;17.23;15.00;;;;;;;;;;5022150;28;20068;-71
2021/09/05 08:19:25;;;;;;;19.83;16.25;;;;;;;;;;5013647;28;20508;-70
2021/09/05 08:21:51;;;;;;;17.33;14.68;;;;;;;;;;5005659;28;20053;-70
2021/09/05 08:24:18;;;;;;;16.88;15.25;;;;;;;;;;5018254;28;20367;-70
2021/09/05 08:26:44;;;;;;;16.08;14.38;;;;;;;;;;5013536;28;20045;-70
2021/09/05 08:29:10;;;;;;;15.63;13.32;;;;;;;;;;5015595;28;20038;-70
2021/09/05 08:31:36;;;;;;;17.33;14.60;;;;;;;;;;5009840;28;20045;-70
2021/09/05 08:34:03;;;;;;;15.55;13.90;;;;;;;;;;5016715;28;20091;-70
2021/09/05 08:36:31;;;;;;;14.77;12.98;;;;;;;;;;5011803;28;20486;-70
2021/09/05 08:38:57;;;;;;;15.68;13.05;;;;;;;;;;5020676;28;20042;-70
2021/09/05 08:41:27;;;;;;;13.57;12.13;;;;;;;;;;5014687;28;20499;-70
2021/09/05 08:43:53;;;;;;;14.70;13.02;;;;;;;;;;5018427;28;20537;-70
2021/09/05 08:46:20;;;;;;;12.35;11.05;;;;;;;;;;5016478;28;20061;-70
2021/09/05 08:48:49;;;;;;;13.23;11.38;;;;;;;;;;5021048;28;20521;-70
2021/09/05 08:51:15;;;;;;;12.10;10.50;;;;;;;;;;5013007;28;20037;-68
2021/09/05 08:53:41;;;;;;;11.05;9.80;;;;;;;;;;5030369;28;20510;-69
2021/09/05 08:56:07;;;;;;;13.23;11.38;;;;;;;;;;5016764;28;20046;-69
2021/09/05 08:58:33;;;;;;;12.40;10.57;;;;;;;;;;5016458;28;20042;-70
2021/09/05 09:01:14;;;;;;;11.00;9.80;;;;;;;;;;5018313;28;20509;-70
2021/09/05 09:03:40;;;;;;;11.55;9.93;;;;;;;;;;5014588;28;20038;-70
2021/09/05 09:06:07;;;;;;;11.70;10.32;;;;;;;;;;5022190;28;20124;-69
2021/09/05 09:08:33;;;;;;;11.02;9.65;;;;;;;;;;5009563;28;20038;-69
2021/09/05 09:11:03;;;;;;;11.90;9.90;;;;;;;;;;5021071;28;20049;-69
2021/09/05 09:13:29;;;;;;;10.68;9.57;;;;;;;;;;5009264;28;20045;-69
2021/09/05 09:15:56;;;;;;;11.20;9.95;;;;;;;;;;5020743;28;20041;-69
2021/09/05 09:18:26;;;;;;;10.20;9.20;;;;;;;;;;5014269;28;20054;-69
2021/09/05 09:20:54;;;;;;;10.60;9.50;;;;;;;;;;5029496;28;20127;-69
2021/09/05 09:23:31;;;;;;;9.48;8.48;;;;;;;;;;5017062;28;20030;-69
2021/09/05 09:26:01;;;;;;;10.80;9.02;;;;;;;;;;5015937;28;20037;-69
2021/09/05 09:28:39;;;;;;;9.95;8.73;;;;;;;;;;5007748;28;20044;-69
2021/09/05 09:31:17;;;;;;;9.88;8.88;;;;;;;;;;5017075;28;20451;-69
2021/09/05 09:33:44;;;;;;;9.68;8.38;;;;;;;;;;5012306;28;20092;-69
2021/09/05 09:36:13;;;;;;;8.80;7.88;;;;;;;;;;5019472;28;20034;-69
2021/09/05 09:38:39;;;;;;;9.32;8.40;;;;;;;;;;5013819;28;20406;-69
2021/09/05 09:41:27;;;;;;;12.27;9.07;;;;;;;;;;5014883;28;20435;-69
2021/09/05 09:43:57;;;;;;;9.60;8.70;;;;;;;;;;5012305;28;20041;-69
2021/09/05 09:46:24;;;;;;;10.48;8.40;;;;;;;;;;5019461;28;20034;-69
2021/09/05 09:48:51;;;;;;;8.70;7.85;;;;;;;;;;5012622;28;20120;-69
2021/09/05 09:51:17;;;;;;;9.93;8.80;;;;;;;;;;5021652;28;20386;-69
2021/09/05 09:53:44;;;;;;;9.70;8.70;;;;;;;;;;5015333;28;20037;-69
2021/09/05 09:56:11;;;;;;;10.07;8.73;;;;;;;;;;5016224;28;20576;-69
2021/09/05 09:58:37;;;;;;;9.80;8.75;;;;;;;;;;5012518;28;20384;-70
2021/09/05 10:01:04;;;;;;;10.40;7.75;;;;;;;;;;5021159;28;20048;-70
2021/09/05 10:03:31;;;;;;;9.27;7.95;;;;;;;;;;5009361;28;20234;-70
2021/09/05 10:05:59;;;;;;;10.25;7.93;;;;;;;;;;5024345;28;20486;-71
2021/09/05 10:08:26;;;;;;;9.32;7.93;;;;;;;;;;5026097;28;20510;-70
2021/09/05 10:10:54;;;;;;;8.32;6.80;;;;;;;;;;5017885;28;20104;-70
2021/09/05 10:13:20;;;;;;;10.18;6.93;;;;;;;;;;5021563;28;20046;-70
2021/09/05 10:15:46;;;;;;;12.07;7.80;;;;;;;;;;5017460;28;20047;-71
2021/09/05 10:18:13;;;;;;;10.55;7.80;;;;;;;;;;5025308;28;20041;-71
2021/09/05 10:20:39;;;;;;;10.25;8.05;;;;;;;;;;5011104;28;20037;-71
2021/09/05 10:23:05;;;;;;;15.85;11.15;;;;;;;;;;5019925;28;20553;-71
2021/09/05 10:25:32;;;;;;;10.93;7.88;;;;;;;;;;5013968;28;20042;-71
2021/09/05 10:27:58;;;;;;;11.63;7.80;;;;;;;;;;5017545;28;20109;-71
2021/09/05 10:30:24;;;;;;;8.98;8.15;;;;;;;;;;5014439;28;20045;-70
2021/09/05 10:32:55;;;;;;;9.45;7.57;;;;;;;;;;5018227;28;20156;-70
2021/09/05 10:35:45;;;;;;;9.50;6.63;;;;;;;;;;5016097;28;20056;-70
2021/09/05 10:38:13;;;;;;;8.63;6.90;;;;;;;;;;5035501;28;20058;-71
2021/09/05 10:40:43;;;;;;;7.97;7.03;;;;;;;;;;5012600;28;20049;-71
2021/09/05 10:43:09;;;;;;;10.35;7.25;;;;;;;;;;5018819;28;20046;-70
2021/09/05 10:45:35;;;;;;;8.13;7.15;;;;;;;;;;5013174;28;20560;-68
2021/09/05 10:48:01;;;;;;;8.68;7.18;;;;;;;;;;5022370;28;20401;-65
2021/09/05 10:50:50;;;;;;;10.00;7.20;;;;;;;;;;5015447;28;20037;-65
2021/09/05 10:53:20;;;;;;;10.25;8.30;;;;;;;;;;5023772;28;20033;-65
2021/09/05 10:56:03;;;;;;;8.48;7.30;;;;;;;;;;5012921;28;20062;-65
2021/09/05 10:58:39;;;;;;;10.77;7.15;;;;;;;;;;5017347;28;20050;-66
2021/09/05 11:01:19;;;;;;;10.52;7.53;;;;;;;;;;5018144;28;20172;-67
2021/09/05 11:04:03;;;;;;;11.27;7.70;;;;;;;;;;5025683;28;20079;-67
2021/09/05 11:06:43;;;;;;;11.85;8.05;;;;;;;;;;5014701;28;20044;-66
2021/09/05 11:09:22;;;;;;;10.75;7.85;;;;;;;;;;5026522;28;20097;-66
2021/09/05 11:11:59;;;;;;;10.13;7.90;;;;;;;;;;5015357;28;20065;-66
2021/09/05 11:14:37;;;;;;;9.25;7.47;;;;;;;;;;5017985;28;20572;-66
2021/09/05 11:17:09;;;;;;;34.13;31.02;;;;;;;;;;5015849;28;20113;-66
2021/09/05 11:19:35;;;;;;;8.73;7.60;;;;;;;;;;5017829;28;20076;-68
2021/09/05 11:22:05;;;;;;;10.90;7.40;;;;;;;;;;5018935;28;20077;-68
2021/09/05 11:24:31;;;;;;;9.88;8.80;;;;;;;;;;5017991;28;20046;-68
2021/09/05 11:27:00;;;;;;;8.93;8.00;;;;;;;;;;5006613;28;20034;-69
2021/09/05 11:29:26;;;;;;;9.32;7.80;;;;;;;;;;5035854;28;20044;-69
2021/09/05 11:31:52;;;;;;;12.30;7.70;;;;;;;;;;5012963;28;20525;-66
2021/09/05 11:34:18;;;;;;;11.80;10.23;;;;;;;;;;5017305;28;20477;-66
2021/09/05 11:36:45;;;;;;;8.45;7.43;;;;;;;;;;5017654;28;20403;-65
2021/09/05 11:39:11;;;;;;;11.07;7.95;;;;;;;;;;5014570;28;20521;-65
2021/09/05 11:41:37;;;;;;;11.93;8.40;;;;;;;;;;5025495;28;20069;-67
2021/09/05 11:44:03;;;;;;;10.73;8.57;;;;;;;;;;5015536;28;20034;-67
2021/09/05 11:46:29;;;;;;;11.50;9.02;;;;;;;;;;5015907;28;20088;-67
2021/09/05 11:49:00;;;;;;;9.90;8.88;;;;;;;;;;5013018;28;20413;-67
2021/09/05 11:51:26;;;;;;;10.85;9.07;;;;;;;;;;5018235;28;20077;-67
2021/09/05 11:53:59;;;;;;;10.50;9.02;;;;;;;;;;5008228;28;20084;-67
2021/09/05 11:56:29;;;;;;;10.60;8.73;;;;;;;;;;5015179;28;20054;-66
2021/09/05 11:58:55;;;;;;;9.80;8.80;;;;;;;;;;5016493;28;20103;-67
2021/09/05 12:01:21;;;;;;;12.77;10.10;;;;;;;;;;5015322;28;20088;-67
2021/09/05 12:03:47;;;;;;;11.00;9.75;;;;;;;;;;5010095;28;20053;-72
2021/09/05 12:06:13;;;;;;;10.68;9.15;;;;;;;;;;5018129;28;20048;-73
2021/09/05 12:08:40;;;;;;;10.68;9.23;;;;;;;;;;5011329;28;20033;-73
2021/09/05 12:11:08;;;;;;;9.88;8.80;;;;;;;;;;5014907;28;20049;-73
2021/09/05 12:14:06;;;;;;;12.00;9.93;;;;;;;;;;4998463;28;20134;-72
2021/09/05 12:16:32;;;;;;;12.15;10.73;;;;;;;;;;4999811;28;20045;-72
2021/09/05 12:18:59;;;;;;;12.00;10.40;;;;;;;;;;5012963;28;20042;-68
2021/09/05 12:21:30;;;;;;;10.98;9.80;;;;;;;;;;5020409;28;20474;-68
2021/09/05 12:23:56;;;;;;;13.18;11.07;;;;;;;;;;5012615;28;20092;-69
2021/09/05 12:26:24;;;;;;;11.32;10.02;;;;;;;;;;5016473;28;20057;-69
2021/09/05 12:29:03;;;;;;;12.18;9.63;;;;;;;;;;5020832;28;20413;-69
2021/09/05 12:31:44;;;;;;;10.90;9.80;;;;;;;;;;5018882;28;20062;-69
2021/09/05 12:34:41;;;;;;;13.05;10.35;;;;;;;;;;5015425;28;20108;-72
2021/09/05 12:37:16;;;;;;;13.25;9.77;;;;;;;;;;5022689;28;20042;-71
2021/09/05 12:39:50;;;;;;;11.93;10.38;;;;;;;;;;5009574;28;20742;-71
2021/09/05 12:42:17;;;;;;;12.90;10.38;;;;;;;;;;5000793;28;20042;-71
2021/09/05 12:44:53;;;;;;;13.05;10.68;;;;;;;;;;5016366;28;20041;-71
2021/09/05 12:47:22;;;;;;;11.95;10.25;;;;;;;;;;5015031;28;20394;-71
2021/09/05 12:49:49;;;;;;;11.57;9.95;;;;;;;;;;5013174;28;20100;-72
2021/09/05 12:52:27;;;;;;;12.27;10.27;;;;;;;;;;5017735;28;20059;-72
2021/09/05 12:54:53;;;;;;;10.45;9.35;;;;;;;;;;5012317;28;20144;-72
2021/09/05 12:57:19;;;;;;;10.43;8.60;;;;;;;;;;5012280;28;20494;-72
2021/09/05 12:59:45;;;;;;;11.50;9.57;;;;;;;;;;5016445;28;20049;-71
2021/09/05 13:02:11;;;;;;;11.02;9.02;;;;;;;;;;5012705;28;20128;-71
2021/09/05 13:04:37;;;;;;;10.55;8.80;;;;;;;;;;5022383;28;20521;-71
2021/09/05 13:07:03;;;;;;;9.82;8.55;;;;;;;;;;5010369;28;20584;-71
2021/09/05 13:09:29;;;;;;;11.32;9.10;;;;;;;;;;5000042;28;20158;-71
2021/09/05 13:11:55;;;;;;;10.20;9.23;;;;;;;;;;5018372;28;20073;-71
2021/09/05 13:14:21;;;;;;;11.07;9.32;;;;;;;;;;5007008;28;20045;-71
2021/09/05 13:16:47;;;;;;;10.85;8.80;;;;;;;;;;5000300;28;20055;-72
2021/09/05 13:19:13;;;;;;;9.88;8.60;;;;;;;;;;5004589;28;20133;-72
2021/09/05 13:21:40;;;;;;;10.43;8.43;;;;;;;;;;5012532;28;20135;-72
2021/09/05 13:24:06;;;;;;;11.70;8.70;;;;;;;;;;5013172;28;20041;-72
2021/09/05 13:26:32;;;;;;;12.75;8.60;;;;;;;;;;5001315;28;20513;-72
2021/09/05 13:28:58;;;;;;;9.15;8.25;;;;;;;;;;5020477;28;20041;-72
2021/09/05 13:31:28;;;;;;;12.27;9.25;;;;;;;;;;5011798;28;20145;-72
2021/09/05 13:33:55;;;;;;;9.77;8.75;;;;;;;;;;5022040;28;20527;-72
2021/09/05 13:36:21;;;;;;;11.23;9.45;;;;;;;;;;5016611;28;20045;-72
2021/09/05 13:38:48;;;;;;;13.18;9.23;;;;;;;;;;5012746;28;20547;-72
2021/09/05 13:41:14;;;;;;;11.10;8.45;;;;;;;;;;5026695;28;20053;-71
2021/09/05 13:43:40;;;;;;;11.48;9.07;;;;;;;;;;5017075;28;20037;-72
2021/09/05 13:46:06;;;;;;;13.45;8.88;;;;;;;;;;5021306;28;20041;-72
2021/09/05 13:48:32;;;;;;;11.15;8.52;;;;;;;;;;5015223;28;20041;-72
2021/09/05 13:50:59;;;;;;;10.85;8.05;;;;;;;;;;5021088;28;20053;-71
2021/09/05 13:53:25;;;;;;;11.05;8.38;;;;;;;;;;5019464;28;20057;-71
2021/09/05 13:55:51;;;;;;;9.10;8.20;;;;;;;;;;5025975;28;20056;-71
2021/09/05 13:58:17;;;;;;;10.95;8.50;;;;;;;;;;5003015;28;20049;-71
2021/09/05 14:00:43;;;;;;;11.90;9.48;;;;;;;;;;5022869;28;20205;-71
2021/09/05 14:03:10;;;;;;;11.25;9.30;;;;;;;;;;4997440;28;20046;-71
2021/09/05 14:05:37;;;;;;;9.68;8.68;;;;;;;;;;5012622;28;20052;-71
2021/09/05 14:08:03;;;;;;;12.13;9.13;;;;;;;;;;5019330;28;20054;-71
2021/09/05 14:10:29;;;;;;;13.50;8.63;;;;;;;;;;5020703;28;20049;-71
2021/09/05 14:12:55;;;;;;;12.82;8.32;;;;;;;;;;5022053;28;20400;-71
2021/09/05 14:15:21;;;;;;;9.73;8.63;;;;;;;;;;5015894;28;20033;-68
2021/09/05 14:17:47;;;;;;;10.05;8.27;;;;;;;;;;5026627;28;20145;-67
2021/09/05 14:20:13;;;;;;;10.85;8.65;;;;;;;;;;5014295;28;20419;-64
2021/09/05 14:22:39;;;;;;;12.32;9.30;;;;;;;;;;5019891;28;20149;-63
2021/09/05 14:25:06;;;;;;;11.63;9.50;;;;;;;;;;5012151;28;20037;-63